createdAt,value
2022-10-01T00:00:04.000Z,51.323414
2022-10-01T00:01:04.061Z,51.323425
2022-10-01T00:02:04.000Z,51.323399
2022-10-01T00:03:03.986Z,51.323425
2022-10-01T00:04:03.924Z,51.323460
2022-10-01T00:05:03.914Z,51.323425
2022-10-01T00:06:03.918Z,51.323452
2022-10-01T00:07:03.876Z,51.323467
2022-10-01T00:08:03.854Z,51.323467
2022-10-01T00:09:03.838Z,51.323429
2022-10-01T00:10:03.822Z,51.323433
2022-10-01T00:11:03.833Z,51.323437
2022-10-01T00:12:03.785Z,51.323429
2022-10-01T00:13:03.771Z,51.323444
2022-10-01T00:14:03.751Z,51.323418
2022-10-01T00:15:06.127Z,51.323429
2022-10-01T00:16:04.773Z,51.323429
2022-10-01T00:17:03.695Z,51.323444
2022-10-01T00:18:03.675Z,51.323414
2022-10-01T00:19:03.900Z,51.323460
2022-10-01T00:20:10.505Z,51.323509
2022-10-01T00:21:04.650Z,51.323483
2022-10-01T00:22:03.603Z,51.323460
2022-10-01T00:23:03.594Z,51.323441
2022-10-01T00:24:03.571Z,51.323448
2022-10-01T00:25:03.549Z,51.323429
2022-10-01T00:26:03.556Z,51.323418
2022-10-01T00:27:03.514Z,51.323441
2022-10-01T00:28:03.544Z,51.323433
2022-10-01T00:29:03.482Z,51.323418
2022-10-01T00:30:03.468Z,51.323421
2022-10-01T00:31:03.510Z,51.323414
2022-10-01T00:32:03.472Z,51.323418
2022-10-01T00:33:03.409Z,51.323421
2022-10-01T00:34:03.400Z,51.323448
2022-10-01T00:35:03.377Z,51.323437
2022-10-01T00:36:03.388Z,51.323418
2022-10-01T00:37:03.341Z,51.323387
2022-10-01T00:38:03.326Z,51.323429
2022-10-01T00:39:03.315Z,51.323429
2022-10-01T00:40:03.296Z,51.323421
2022-10-01T00:41:03.303Z,51.323437
2022-10-01T00:42:03.258Z,51.323391
2022-10-01T00:43:03.241Z,51.323395
2022-10-01T00:44:03.227Z,51.323410
2022-10-01T00:45:03.209Z,51.323433
2022-10-01T00:46:03.265Z,51.323437
2022-10-01T00:47:03.174Z,51.323433
2022-10-01T00:48:03.155Z,51.323429
2022-10-01T00:49:03.142Z,51.323429
2022-10-01T00:50:03.120Z,51.323441
2022-10-01T00:51:03.130Z,51.323425
2022-10-01T00:52:03.083Z,51.323444
2022-10-01T00:53:03.064Z,51.323437
2022-10-01T00:54:03.046Z,51.323425
2022-10-01T00:55:03.030Z,51.323433
2022-10-01T00:56:03.046Z,51.323441
2022-10-01T00:57:02.993Z,51.323463
2022-10-01T00:58:03.009Z,51.323456
2022-10-01T00:59:02.966Z,51.323452
2022-10-01T01:00:02.949Z,51.323456
2022-10-01T01:01:02.948Z,51.323425
2022-10-01T01:02:02.993Z,51.323414
2022-10-01T01:03:02.919Z,51.323410
2022-10-01T01:04:02.877Z,51.323441
2022-10-01T01:05:02.853Z,51.323437
2022-10-01T01:06:02.832Z,51.323418
2022-10-01T01:07:02.840Z,51.323437
2022-10-01T01:08:02.802Z,51.323441
2022-10-01T01:09:02.780Z,51.323429
2022-10-01T01:10:02.767Z,51.323410
2022-10-01T01:11:02.748Z,51.323444
2022-10-01T01:12:02.764Z,51.323437
2022-10-01T01:13:02.709Z,51.323448
2022-10-01T01:14:02.689Z,51.323444
2022-10-01T01:15:02.671Z,51.323456
2022-10-01T01:16:02.700Z,51.323421
2022-10-01T01:17:02.671Z,51.323437
2022-10-01T01:18:02.617Z,51.323433
2022-10-01T01:19:02.598Z,51.323429
2022-10-01T01:20:02.585Z,51.323441
2022-10-01T01:21:02.565Z,51.323452
2022-10-01T01:22:02.575Z,51.323456
2022-10-01T01:23:02.540Z,51.323425
2022-10-01T01:24:02.510Z,51.323429
2022-10-01T01:25:02.496Z,51.323410
2022-10-01T01:26:02.487Z,51.323391
2022-10-01T01:27:02.489Z,51.323425
2022-10-01T01:28:02.492Z,51.323467
2022-10-01T01:29:02.423Z,51.323452
2022-10-01T01:30:02.414Z,51.323463
2022-10-01T01:31:02.404Z,51.323433
2022-10-01T01:32:02.409Z,51.323421
2022-10-01T01:33:02.363Z,51.323429
2022-10-01T01:34:02.340Z,51.323433
2022-10-01T01:35:02.345Z,51.323425
2022-10-01T01:36:02.304Z,51.323414
2022-10-01T01:37:02.317Z,51.323433
2022-10-01T01:38:02.271Z,51.323429
2022-10-01T01:39:02.252Z,51.323421
2022-10-01T01:40:02.234Z,51.323452
2022-10-01T01:41:02.247Z,51.323437
2022-10-01T01:42:02.229Z,51.323448
2022-10-01T01:43:02.183Z,51.323486
2022-10-01T01:44:02.167Z,51.323456
2022-10-01T01:45:02.148Z,51.323410
2022-10-01T01:46:02.186Z,51.323452
2022-10-01T01:47:02.148Z,51.323425
2022-10-01T01:48:02.105Z,51.323448
2022-10-01T01:49:02.077Z,51.323463
2022-10-01T01:50:02.063Z,51.323475
2022-10-01T01:51:02.038Z,51.323502
2022-10-01T01:52:02.048Z,51.323505
2022-10-01T01:53:02.009Z,51.323486
2022-10-01T01:54:01.989Z,51.323483
2022-10-01T01:55:01.970Z,51.323471
2022-10-01T01:56:01.951Z,51.323494
2022-10-01T01:57:01.961Z,51.323456
2022-10-01T01:58:01.921Z,51.323429
2022-10-01T01:59:01.899Z,51.323425
2022-10-01T02:00:01.885Z,51.323429
2022-10-01T02:01:01.866Z,51.323444
2022-10-01T02:02:02.035Z,51.323437
2022-10-01T02:03:01.880Z,51.323444
2022-10-01T02:04:01.812Z,51.323456
2022-10-01T02:05:01.796Z,51.323471
2022-10-01T02:06:01.777Z,51.323467
2022-10-01T02:07:01.787Z,51.323463
2022-10-01T02:08:01.746Z,51.323460
2022-10-01T02:09:01.729Z,51.323444
2022-10-01T02:10:01.707Z,51.323460
2022-10-01T02:11:01.686Z,51.323456
2022-10-01T02:12:01.699Z,51.323467
2022-10-01T02:13:01.650Z,51.323364
2022-10-01T02:14:01.638Z,51.323399
2022-10-01T02:15:01.617Z,51.323368
2022-10-01T02:16:01.681Z,51.323463
2022-10-01T02:17:01.627Z,51.323437
2022-10-01T02:18:01.564Z,51.323368
2022-10-01T02:19:01.562Z,51.323395
2022-10-01T02:20:01.532Z,51.323460
2022-10-01T02:21:01.507Z,51.323395
2022-10-01T02:22:01.517Z,51.323448
2022-10-01T02:23:01.476Z,51.323399
2022-10-01T02:24:01.456Z,51.323418
2022-10-01T02:25:01.437Z,51.323425
2022-10-01T02:26:01.423Z,51.323460
2022-10-01T02:27:01.432Z,51.323475
2022-10-01T02:28:01.499Z,51.323509
2022-10-01T02:29:01.369Z,51.323502
2022-10-01T02:30:01.348Z,51.323490
2022-10-01T02:31:02.444Z,51.323486
2022-10-01T02:32:01.344Z,51.323521
2022-10-01T02:33:01.302Z,51.323524
2022-10-01T02:34:01.282Z,51.323505
2022-10-01T02:35:01.264Z,51.323505
2022-10-01T02:36:01.242Z,51.323559
2022-10-01T02:37:01.252Z,51.323479
2022-10-01T02:38:01.209Z,51.323486
2022-10-01T02:39:01.196Z,51.323444
2022-10-01T02:40:01.179Z,51.323433
2022-10-01T02:41:01.162Z,51.323444
2022-10-01T02:42:01.163Z,51.323437
2022-10-01T02:43:01.122Z,51.323425
2022-10-01T02:44:01.102Z,51.323463
2022-10-01T02:45:01.094Z,51.323444
2022-10-01T02:46:01.127Z,51.323433
2022-10-01T02:47:01.080Z,51.323460
2022-10-01T02:48:01.040Z,51.323433
2022-10-01T02:49:01.018Z,51.323425
2022-10-01T02:50:00.999Z,51.323425
2022-10-01T02:51:00.982Z,51.323433
2022-10-01T02:52:00.985Z,51.323425
2022-10-01T02:53:01.949Z,51.323433
2022-10-01T02:54:00.933Z,51.323441
2022-10-01T02:55:00.906Z,51.323421
2022-10-01T02:56:00.893Z,51.323406
2022-10-01T02:57:00.904Z,51.323418
2022-10-01T02:58:00.855Z,51.323410
2022-10-01T02:59:00.834Z,51.323406
2022-10-01T03:00:00.819Z,51.323425
2022-10-01T03:01:00.800Z,51.323399
2022-10-01T03:02:00.877Z,51.323437
2022-10-01T03:03:00.820Z,51.323452
2022-10-01T03:04:00.751Z,51.323452
2022-10-01T03:05:00.740Z,51.323456
2022-10-01T03:06:00.714Z,51.323441
2022-10-01T03:07:00.725Z,51.323418
2022-10-01T03:08:00.681Z,51.323414
2022-10-01T03:09:00.659Z,51.323349
2022-10-01T03:10:00.642Z,51.323414
2022-10-01T03:11:00.623Z,51.323421
2022-10-01T03:12:00.613Z,51.323399
2022-10-01T03:13:00.616Z,51.323421
2022-10-01T03:14:00.572Z,51.323421
2022-10-01T03:15:00.555Z,51.323402
2022-10-01T03:16:00.564Z,51.323406
2022-10-01T03:17:00.518Z,51.323406
2022-10-01T03:18:00.528Z,51.323395
2022-10-01T03:19:00.482Z,51.323421
2022-10-01T03:20:00.465Z,51.323433
2022-10-01T03:21:00.445Z,51.323433
2022-10-01T03:22:00.430Z,51.323414
2022-10-01T03:23:00.437Z,51.323387
2022-10-01T03:24:00.392Z,51.323410
2022-10-01T03:25:00.377Z,51.323418
2022-10-01T03:26:00.356Z,51.323421
2022-10-01T03:27:00.343Z,51.323433
2022-10-01T03:28:00.372Z,51.323395
2022-10-01T03:29:00.302Z,51.323418
2022-10-01T03:30:00.293Z,51.323456
2022-10-01T03:31:00.300Z,51.323452
2022-10-01T03:32:00.250Z,51.323402
2022-10-01T03:33:00.257Z,51.323383
2022-10-01T03:34:00.207Z,51.323399
2022-10-01T03:35:00.198Z,51.323418
2022-10-01T03:36:00.159Z,51.323402
2022-10-01T03:37:01.153Z,51.323402
2022-10-01T03:38:00.162Z,51.323387
2022-10-01T03:39:00.122Z,51.323418
2022-10-01T03:40:00.155Z,51.323429
2022-10-01T03:41:00.093Z,51.323425
2022-10-01T03:42:00.063Z,51.323402
2022-10-01T03:43:00.080Z,51.323391
2022-10-01T03:44:00.815Z,51.323395
2022-10-01T03:45:01.013Z,51.323406
2022-10-01T03:46:00.059Z,51.323414
2022-10-01T03:46:59.979Z,51.323410
2022-10-01T03:47:59.984Z,51.323406
2022-10-01T03:48:59.938Z,51.323425
2022-10-01T03:49:59.921Z,51.323433
2022-10-01T03:50:59.914Z,51.323410
2022-10-01T03:51:59.895Z,51.323444
2022-10-01T03:52:59.897Z,51.323448
2022-10-01T03:53:59.852Z,51.323437
2022-10-01T03:54:59.835Z,51.323437
2022-10-01T03:55:59.820Z,51.323437
2022-10-01T03:56:59.802Z,51.323429
2022-10-01T03:57:59.811Z,51.323437
2022-10-01T03:58:59.764Z,51.323433
2022-10-01T03:59:59.747Z,51.323433
2022-10-01T04:00:59.733Z,51.323452
2022-10-01T04:01:59.851Z,51.323433
2022-10-01T04:02:59.770Z,51.323395
2022-10-01T04:03:59.675Z,51.323437
2022-10-01T04:04:59.662Z,51.323429
2022-10-01T04:05:59.645Z,51.323429
2022-10-01T04:06:59.626Z,51.323437
2022-10-01T04:07:59.636Z,51.323425
2022-10-01T04:08:59.591Z,51.323402
2022-10-01T04:09:59.572Z,51.323418
2022-10-01T04:10:59.556Z,51.323448
2022-10-01T04:11:59.533Z,51.323402
2022-10-01T04:12:59.547Z,51.323448
2022-10-01T04:13:59.518Z,51.323441
2022-10-01T04:14:59.484Z,51.323414
2022-10-01T04:15:59.503Z,51.323421
2022-10-01T04:16:59.447Z,51.323425
2022-10-01T04:17:59.459Z,51.323425
2022-10-01T04:18:59.412Z,51.323425
2022-10-01T04:19:59.400Z,51.323414
2022-10-01T04:20:59.379Z,51.323421
2022-10-01T04:21:59.358Z,51.323425
2022-10-01T04:22:59.367Z,51.323433
2022-10-01T04:23:59.323Z,51.323414
2022-10-01T04:24:59.307Z,51.323414
2022-10-01T04:25:59.282Z,51.323402
2022-10-01T04:26:59.268Z,51.323387
2022-10-01T04:27:59.329Z,51.323376
2022-10-01T04:28:59.232Z,51.323395
2022-10-01T04:29:59.213Z,51.323414
2022-10-01T04:30:59.196Z,51.323448
2022-10-01T04:31:59.235Z,51.323429
2022-10-01T04:32:59.192Z,51.323421
2022-10-01T04:33:59.138Z,51.323406
2022-10-01T04:35:00.124Z,51.323421
2022-10-01T04:35:59.108Z,51.323433
2022-10-01T04:36:59.118Z,51.323437
2022-10-01T04:37:59.069Z,51.323437
2022-10-01T04:39:02.203Z,51.323410
2022-10-01T04:40:00.039Z,51.323414
2022-10-01T04:40:59.019Z,51.323414
2022-10-01T04:41:59.029Z,51.323399
2022-10-01T04:42:58.986Z,51.323421
2022-10-01T04:43:58.966Z,51.323425
2022-10-01T04:44:58.947Z,51.323429
2022-10-01T04:45:58.935Z,51.323433
2022-10-01T04:46:58.995Z,51.323452
2022-10-01T04:47:58.896Z,51.323444
2022-10-01T04:48:58.893Z,51.323429
2022-10-01T04:49:58.861Z,51.323429
2022-10-01T04:50:58.849Z,51.323414
2022-10-01T04:51:58.851Z,51.323410
2022-10-01T04:52:58.808Z,51.323425
2022-10-01T04:53:58.794Z,51.323452
2022-10-01T04:54:58.769Z,51.323463
2022-10-01T04:55:59.756Z,51.323456
2022-10-01T04:56:58.764Z,51.323452
2022-10-01T04:57:58.722Z,51.323448
2022-10-01T04:58:58.702Z,51.323456
2022-10-01T04:59:58.684Z,51.323441
2022-10-01T05:01:02.017Z,51.323421
2022-10-01T05:01:59.724Z,51.323425
2022-10-01T05:02:58.631Z,51.323433
2022-10-01T05:03:58.611Z,51.323437
2022-10-01T05:04:58.592Z,51.323444
2022-10-01T05:05:58.580Z,51.323433
2022-10-01T05:06:58.586Z,51.323444
2022-10-01T05:07:58.549Z,51.323437
2022-10-01T05:08:58.525Z,51.323437
2022-10-01T05:09:58.508Z,51.323441
2022-10-01T05:10:58.490Z,51.323463
2022-10-01T05:11:58.502Z,51.323452
2022-10-01T05:12:58.454Z,51.323456
2022-10-01T05:13:58.440Z,51.323460
2022-10-01T05:14:58.415Z,51.323448
2022-10-01T05:15:58.465Z,51.323429
2022-10-01T05:16:58.414Z,51.323437
2022-10-01T05:17:58.364Z,51.323467
2022-10-01T05:18:58.346Z,51.323448
2022-10-01T05:19:58.330Z,51.323444
2022-10-01T05:20:58.311Z,51.323471
2022-10-01T05:21:58.326Z,51.323460
2022-10-01T05:22:58.277Z,51.323460
2022-10-01T05:23:58.259Z,51.323433
2022-10-01T05:24:58.245Z,51.323460
2022-10-01T05:25:58.224Z,51.323471
2022-10-01T05:26:58.232Z,51.323502
2022-10-01T05:27:58.274Z,51.323521
2022-10-01T05:28:58.171Z,51.323509
2022-10-01T05:29:58.151Z,51.323498
2022-10-01T05:30:58.138Z,51.323490
2022-10-01T05:31:58.180Z,51.323463
2022-10-01T05:32:58.097Z,51.323456
2022-10-01T05:33:58.081Z,51.323437
2022-10-01T05:34:58.065Z,51.323441
2022-10-01T05:35:58.045Z,51.323452
2022-10-01T05:36:58.054Z,51.323456
2022-10-01T05:37:58.011Z,51.323471
2022-10-01T05:38:57.991Z,51.323460
2022-10-01T05:39:57.972Z,51.323448
2022-10-01T05:40:57.953Z,51.323460
2022-10-01T05:41:59.132Z,51.323452
2022-10-01T05:42:57.916Z,51.323448
2022-10-01T05:43:57.904Z,51.323463
2022-10-01T05:44:57.878Z,51.323475
2022-10-01T05:45:57.897Z,51.323444
2022-10-01T05:46:57.869Z,51.323452
2022-10-01T05:47:57.822Z,51.323444
2022-10-01T05:48:57.806Z,51.323456
2022-10-01T05:49:57.786Z,51.323456
2022-10-01T05:50:57.809Z,51.323441
2022-10-01T05:51:57.776Z,51.323456
2022-10-01T05:52:57.734Z,51.323452
2022-10-01T05:53:57.715Z,51.323460
2022-10-01T05:54:57.695Z,51.323444
2022-10-01T05:55:57.677Z,51.323460
2022-10-01T05:56:57.692Z,51.323475
2022-10-01T05:57:57.643Z,51.323460
2022-10-01T05:58:57.621Z,51.323425
2022-10-01T05:59:57.611Z,51.323429
2022-10-01T06:00:57.588Z,51.323441
2022-10-01T06:01:57.686Z,51.323452
2022-10-01T06:02:57.691Z,51.323460
2022-10-01T06:03:57.561Z,51.323448
2022-10-01T06:04:57.516Z,51.323441
2022-10-01T06:05:57.493Z,51.323463
2022-10-01T06:06:57.504Z,51.323471
2022-10-01T06:07:57.464Z,51.323448
2022-10-01T06:08:57.470Z,51.323448
2022-10-01T06:09:57.421Z,51.323448
2022-10-01T06:10:57.403Z,51.323444
2022-10-01T06:11:57.411Z,51.323433
2022-10-01T06:12:57.366Z,51.323441
2022-10-01T06:13:57.352Z,51.323452
2022-10-01T06:14:57.330Z,51.323437
2022-10-01T06:15:57.319Z,51.323437
2022-10-01T06:16:57.360Z,51.323448
2022-10-01T06:17:57.284Z,51.323460
2022-10-01T06:18:57.261Z,51.323448
2022-10-01T06:19:57.239Z,51.323448
2022-10-01T06:20:57.224Z,51.323441
2022-10-01T06:21:57.259Z,51.323444
2022-10-01T06:22:57.180Z,51.323444
2022-10-01T06:23:57.167Z,51.323448
2022-10-01T06:24:57.147Z,51.323460
2022-10-01T06:25:57.128Z,51.323452
2022-10-01T06:26:57.138Z,51.323441
2022-10-01T06:27:57.149Z,51.323441
2022-10-01T06:28:57.072Z,51.323456
2022-10-01T06:29:57.048Z,51.323429
2022-10-01T06:30:57.036Z,51.323418
2022-10-01T06:31:57.108Z,51.323444
2022-10-01T06:32:57.003Z,51.323437
2022-10-01T06:33:56.982Z,51.323437
2022-10-01T06:34:56.961Z,51.323456
2022-10-01T06:35:56.941Z,51.323460
2022-10-01T06:36:56.950Z,51.323421
2022-10-01T06:37:56.909Z,51.323429
2022-10-01T06:38:56.894Z,51.323441
2022-10-01T06:39:56.877Z,51.323433
2022-10-01T06:40:56.854Z,51.323452
2022-10-01T06:41:56.862Z,51.323471
2022-10-01T06:42:56.951Z,51.323437
2022-10-01T06:43:57.811Z,51.323448
2022-10-01T06:44:56.783Z,51.323463
2022-10-01T06:45:56.790Z,51.323463
2022-10-01T06:46:56.772Z,51.323463
2022-10-01T06:47:56.722Z,51.323460
2022-10-01T06:48:56.705Z,51.323467
2022-10-01T06:49:56.719Z,51.323463
2022-10-01T06:50:56.672Z,51.323418
2022-10-01T06:51:56.688Z,51.323437
2022-10-01T06:52:56.624Z,51.323444
2022-10-01T06:53:57.612Z,51.323437
2022-10-01T06:54:56.626Z,51.323421
2022-10-01T06:55:56.583Z,51.323441
2022-10-01T06:56:56.563Z,51.323429
2022-10-01T06:57:56.545Z,51.323418
2022-10-01T06:58:56.527Z,51.323425
2022-10-01T06:59:56.533Z,51.323441
2022-10-01T07:00:56.684Z,51.323441
2022-10-01T07:01:56.663Z,51.323418
2022-10-01T07:02:56.481Z,51.323414
2022-10-01T07:03:56.437Z,51.323437
2022-10-01T07:04:56.421Z,51.323429
2022-10-01T07:05:56.398Z,51.323441
2022-10-01T07:06:56.383Z,51.323448
2022-10-01T07:07:56.390Z,51.323437
2022-10-01T07:08:56.347Z,51.323433
2022-10-01T07:09:56.332Z,51.323460
2022-10-01T07:10:56.310Z,51.323471
2022-10-01T07:11:56.293Z,51.323456
2022-10-01T07:12:56.302Z,51.323456
2022-10-01T07:13:56.259Z,51.323444
2022-10-01T07:14:56.244Z,51.323444
2022-10-01T07:15:56.227Z,51.323444
2022-10-01T07:16:56.242Z,51.323418
2022-10-01T07:17:56.224Z,51.323429
2022-10-01T07:18:56.176Z,51.323410
2022-10-01T07:19:56.153Z,51.323425
2022-10-01T07:20:56.175Z,51.323421
2022-10-01T07:21:56.116Z,51.323448
2022-10-01T07:22:56.101Z,51.323460
2022-10-01T07:23:56.081Z,51.323444
2022-10-01T07:24:56.063Z,51.323406
2022-10-01T07:25:56.071Z,51.323418
2022-10-01T07:26:56.023Z,51.323414
2022-10-01T07:27:56.079Z,51.323402
2022-10-01T07:28:55.989Z,51.323399
2022-10-01T07:29:55.973Z,51.323406
2022-10-01T07:30:55.955Z,51.323414
2022-10-01T07:31:56.002Z,51.323410
2022-10-01T07:32:55.943Z,51.323402
2022-10-01T07:33:55.898Z,51.323383
2022-10-01T07:34:55.882Z,51.323368
2022-10-01T07:35:55.864Z,51.323406
2022-10-01T07:36:55.844Z,51.323437
2022-10-01T07:37:55.856Z,51.323395
2022-10-01T07:38:55.810Z,51.323418
2022-10-01T07:39:55.800Z,51.323429
2022-10-01T07:40:55.779Z,51.323399
2022-10-01T07:41:55.759Z,51.323414
2022-10-01T07:42:55.782Z,51.323399
2022-10-01T07:43:55.728Z,51.323406
2022-10-01T07:44:55.701Z,51.323402
2022-10-01T07:45:55.710Z,51.323383
2022-10-01T07:46:55.664Z,51.323395
2022-10-01T07:47:55.676Z,51.323383
2022-10-01T07:48:55.626Z,51.323391
2022-10-01T07:49:55.611Z,51.323399
2022-10-01T07:50:55.593Z,51.323326
2022-10-01T07:51:55.574Z,51.323376
2022-10-01T07:52:55.584Z,51.323376
2022-10-01T07:53:55.538Z,51.323360
2022-10-01T07:54:55.521Z,51.323353
2022-10-01T07:55:55.499Z,51.323387
2022-10-01T07:56:55.483Z,51.323353
2022-10-01T07:57:55.490Z,51.323380
2022-10-01T07:58:55.443Z,51.323395
2022-10-01T07:59:56.128Z,51.323406
2022-10-01T08:00:56.470Z,51.323414
2022-10-01T08:01:55.412Z,51.323433
2022-10-01T08:02:55.399Z,51.323391
2022-10-01T08:03:55.357Z,51.323425
2022-10-01T08:04:55.335Z,51.323414
2022-10-01T08:05:55.317Z,51.323406
2022-10-01T08:06:55.298Z,51.323387
2022-10-01T08:07:55.311Z,51.323414
2022-10-01T08:08:55.267Z,51.323410
2022-10-01T08:09:55.250Z,51.323410
2022-10-01T08:10:55.231Z,51.323406
2022-10-01T08:11:55.210Z,51.323414
2022-10-01T08:12:55.223Z,51.323410
2022-10-01T08:13:55.182Z,51.323410
2022-10-01T08:14:55.241Z,51.323402
2022-10-01T08:15:55.142Z,51.323406
2022-10-01T08:16:55.235Z,51.323406
2022-10-01T08:17:55.219Z,51.323391
2022-10-01T08:18:55.087Z,51.323395
2022-10-01T08:19:55.193Z,51.323402
2022-10-01T08:20:55.075Z,51.323418
2022-10-01T08:21:55.032Z,51.323399
2022-10-01T08:22:55.049Z,51.323395
2022-10-01T08:23:54.998Z,51.323395
2022-10-01T08:24:54.982Z,51.323395
2022-10-01T08:25:54.969Z,51.323383
2022-10-01T08:26:54.943Z,51.323391
2022-10-01T08:27:55.000Z,51.323360
2022-10-01T08:28:54.906Z,51.323376
2022-10-01T08:29:54.904Z,51.323383
2022-10-01T08:30:54.911Z,51.323391
2022-10-01T08:31:54.903Z,51.323402
2022-10-01T08:32:54.875Z,51.323399
2022-10-01T08:33:54.831Z,51.323399
2022-10-01T08:34:56.742Z,51.323383
2022-10-01T08:35:55.797Z,51.323395
2022-10-01T08:36:54.782Z,51.323395
2022-10-01T08:37:54.785Z,51.323399
2022-10-01T08:38:54.767Z,51.323418
2022-10-01T08:39:54.729Z,51.323421
2022-10-01T08:40:54.716Z,51.323414
2022-10-01T08:41:54.695Z,51.323410
2022-10-01T08:42:54.704Z,51.323406
2022-10-01T08:43:54.692Z,51.323399
2022-10-01T08:44:54.649Z,51.323391
2022-10-01T08:45:54.717Z,51.323410
2022-10-01T08:46:54.608Z,51.323421
2022-10-01T08:47:54.619Z,51.323406
2022-10-01T08:48:57.061Z,51.323410
2022-10-01T08:49:55.554Z,51.323383
2022-10-01T08:50:54.538Z,51.323395
2022-10-01T08:51:54.539Z,51.323406
2022-10-01T08:52:54.524Z,51.323402
2022-10-01T08:53:55.494Z,51.323425
2022-10-01T08:54:54.485Z,51.323448
2022-10-01T08:55:54.462Z,51.323441
2022-10-01T08:56:54.458Z,51.323433
2022-10-01T08:57:54.441Z,51.323414
2022-10-01T08:58:54.401Z,51.323402
2022-10-01T08:59:54.384Z,51.323414
2022-10-01T09:00:54.408Z,51.323387
2022-10-01T09:01:54.372Z,51.323414
2022-10-01T09:02:54.352Z,51.323425
2022-10-01T09:03:54.309Z,51.323391
2022-10-01T09:04:57.698Z,51.323395
2022-10-01T09:05:55.320Z,51.323399
2022-10-01T09:06:54.256Z,51.323395
2022-10-01T09:07:54.239Z,51.323429
2022-10-01T09:08:54.224Z,51.323421
2022-10-01T09:09:54.211Z,51.323418
2022-10-01T09:10:54.219Z,51.323402
2022-10-01T09:11:54.168Z,51.323399
2022-10-01T09:12:54.182Z,51.323395
2022-10-01T09:13:54.138Z,51.323425
2022-10-01T09:14:54.115Z,51.323418
2022-10-01T09:15:54.096Z,51.323399
2022-10-01T09:16:54.126Z,51.323410
2022-10-01T09:17:54.090Z,51.323437
2022-10-01T09:18:54.998Z,51.323418
2022-10-01T09:19:54.024Z,51.323429
2022-10-01T09:20:54.006Z,51.323418
2022-10-01T09:21:53.983Z,51.323399
2022-10-01T09:22:54.115Z,51.323395
2022-10-01T09:23:53.952Z,51.323414
2022-10-01T09:24:53.931Z,51.323410
2022-10-01T09:25:53.915Z,51.323410
2022-10-01T09:26:53.897Z,51.323421
2022-10-01T09:27:53.945Z,51.323402
2022-10-01T09:28:53.857Z,51.323387
2022-10-01T09:29:53.851Z,51.323414
2022-10-01T09:30:53.829Z,51.323418
2022-10-01T09:31:53.909Z,51.323410
2022-10-01T09:32:53.838Z,51.323414
2022-10-01T09:33:53.771Z,51.323414
2022-10-01T09:34:53.746Z,51.323406
2022-10-01T09:35:53.731Z,51.323402
2022-10-01T09:36:53.714Z,51.323387
2022-10-01T09:37:53.719Z,51.323387
2022-10-01T09:38:53.675Z,51.323406
2022-10-01T09:39:53.658Z,51.323418
2022-10-01T09:40:53.636Z,51.323414
2022-10-01T09:41:53.616Z,51.323380
2022-10-01T09:42:53.627Z,51.323383
2022-10-01T09:43:53.583Z,51.323387
2022-10-01T09:44:53.554Z,51.323418
2022-10-01T09:45:54.587Z,51.323399
2022-10-01T09:46:53.524Z,51.323372
2022-10-01T09:47:53.534Z,51.323402
2022-10-01T09:48:53.490Z,51.323410
2022-10-01T09:49:53.475Z,51.323399
2022-10-01T09:50:53.454Z,51.323406
2022-10-01T09:51:53.436Z,51.323414
2022-10-01T09:52:53.449Z,51.323418
2022-10-01T09:53:53.398Z,51.323421
2022-10-01T09:54:53.379Z,51.323391
2022-10-01T09:55:54.105Z,51.323402
2022-10-01T09:56:53.340Z,51.323414
2022-10-01T09:57:53.350Z,51.323402
2022-10-01T09:58:53.304Z,51.323402
2022-10-01T09:59:53.291Z,51.323406
2022-10-01T10:00:53.271Z,51.323421
2022-10-01T10:01:53.312Z,51.323406
2022-10-01T10:02:53.334Z,51.323395
2022-10-01T10:03:53.206Z,51.323391
2022-10-01T10:04:53.199Z,51.323395
2022-10-01T10:05:53.172Z,51.323414
2022-10-01T10:06:53.156Z,51.323414
2022-10-01T10:07:53.179Z,51.323395
2022-10-01T10:08:53.119Z,51.323376
2022-10-01T10:09:53.096Z,51.323360
2022-10-01T10:10:53.078Z,51.323380
2022-10-01T10:11:53.059Z,51.323399
2022-10-01T10:12:53.067Z,51.323395
2022-10-01T10:13:53.017Z,51.323372
2022-10-01T10:14:52.997Z,51.323372
2022-10-01T10:15:53.033Z,51.323395
2022-10-01T10:16:52.961Z,51.323410
2022-10-01T10:17:52.971Z,51.323383
2022-10-01T10:18:52.924Z,51.323395
2022-10-01T10:19:52.900Z,51.323406
2022-10-01T10:20:52.928Z,51.323410
2022-10-01T10:21:52.865Z,51.323402
2022-10-01T10:22:52.877Z,51.323368
2022-10-01T10:23:52.827Z,51.323387
2022-10-01T10:24:52.812Z,51.323399
2022-10-01T10:25:52.794Z,51.323372
2022-10-01T10:26:52.770Z,51.323376
2022-10-01T10:27:52.858Z,51.323414
2022-10-01T10:28:52.735Z,51.323429
2022-10-01T10:29:52.721Z,51.323402
2022-10-01T10:30:52.698Z,51.323425
2022-10-01T10:31:52.699Z,51.323433
2022-10-01T10:32:52.689Z,51.323391
2022-10-01T10:33:52.641Z,51.323383
2022-10-01T10:34:52.622Z,51.323402
2022-10-01T10:35:52.596Z,51.323364
2022-10-01T10:36:52.583Z,51.323399
2022-10-01T10:37:52.588Z,51.323418
2022-10-01T10:38:52.545Z,51.323433
2022-10-01T10:39:52.529Z,51.323406
2022-10-01T10:40:52.501Z,51.323402
2022-10-01T10:41:52.481Z,51.323399
2022-10-01T10:42:52.494Z,51.323456
2022-10-01T10:43:52.442Z,51.323429
2022-10-01T10:44:52.421Z,51.323410
2022-10-01T10:45:52.436Z,51.323452
2022-10-01T10:46:52.435Z,51.323429
2022-10-01T10:47:52.384Z,51.323414
2022-10-01T10:48:52.339Z,51.323437
2022-10-01T10:49:52.318Z,51.323467
2022-10-01T10:50:52.507Z,51.323448
2022-10-01T10:51:52.274Z,51.323486
2022-10-01T10:52:52.283Z,51.323498
2022-10-01T10:53:52.236Z,51.323479
2022-10-01T10:54:53.085Z,51.323479
2022-10-01T10:55:53.188Z,51.323463
2022-10-01T10:56:52.169Z,51.323460
2022-10-01T10:57:56.947Z,51.323456
2022-10-01T10:58:53.122Z,51.323441
2022-10-01T10:59:52.099Z,51.323441
2022-10-01T11:00:52.083Z,51.323429
2022-10-01T11:01:52.197Z,51.323444
2022-10-01T11:02:52.059Z,51.323433
2022-10-01T11:03:52.016Z,51.323441
2022-10-01T11:04:52.001Z,51.323444
2022-10-01T11:05:51.968Z,51.323433
2022-10-01T11:06:51.939Z,51.323452
2022-10-01T11:07:51.948Z,51.323460
2022-10-01T11:08:51.890Z,51.323444
2022-10-01T11:09:51.869Z,51.323456
2022-10-01T11:10:51.856Z,51.323421
2022-10-01T11:11:51.822Z,51.323433
2022-10-01T11:12:51.826Z,51.323448
2022-10-01T11:13:51.786Z,51.323406
2022-10-01T11:14:51.753Z,51.323406
2022-10-01T11:15:51.800Z,51.323418
2022-10-01T11:16:51.717Z,51.323345
2022-10-01T11:17:51.717Z,51.323368
2022-10-01T11:18:51.669Z,51.323414
2022-10-01T11:19:51.649Z,51.323421
2022-10-01T11:20:51.635Z,51.323456
2022-10-01T11:21:51.633Z,51.323479
2022-10-01T11:22:51.608Z,51.323467
2022-10-01T11:23:51.565Z,51.323437